createdAt,value
2023-04-22T00:03:57.484Z,5.25
2023-04-22T00:08:54.064Z,5.18
2023-04-22T00:13:50.444Z,2.95
2023-04-22T00:18:46.833Z,5.15
2023-04-22T00:23:45.254Z,5.00
2023-04-22T00:33:38.057Z,9.32
2023-04-22T00:38:34.430Z,5.63
2023-04-22T00:43:30.885Z,3.42
2023-04-22T00:48:28.877Z,7.28
2023-04-22T00:53:25.408Z,8.63
2023-04-22T00:58:25.041Z,3.85
2023-04-22T01:03:22.321Z,7.30
2023-04-22T01:08:18.819Z,6.22
2023-04-22T01:13:15.165Z,4.72
2023-04-22T01:18:12.058Z,5.97
2023-04-22T01:23:18.945Z,5.20
2023-04-22T01:28:16.793Z,5.47
2023-04-22T01:33:13.265Z,6.47
2023-04-22T01:38:11.395Z,8.23
2023-04-22T01:43:07.923Z,9.43
2023-04-22T01:48:04.864Z,7.45
2023-04-22T01:53:01.391Z,7.53
2023-04-22T01:57:57.795Z,6.05
2023-04-22T02:02:54.310Z,6.63
2023-04-22T02:07:54.848Z,5.88
2023-04-22T02:12:51.203Z,5.95
2023-04-22T02:17:47.603Z,10.63
2023-04-22T02:22:44.045Z,7.10
2023-04-22T02:27:40.516Z,6.03
2023-04-22T02:32:38.805Z,9.80
2023-04-22T02:37:35.274Z,4.85
2023-04-22T02:42:31.588Z,3.22
2023-04-22T02:47:27.994Z,4.45
2023-04-22T02:52:24.361Z,4.82
2023-04-22T02:57:21.049Z,6.97
2023-04-22T03:02:17.439Z,3.63
2023-04-22T03:07:14.374Z,6.70
2023-04-22T03:12:10.754Z,6.28
2023-04-22T03:17:07.094Z,6.88
2023-04-22T03:22:03.468Z,5.93
2023-04-22T03:26:59.809Z,5.20
2023-04-22T03:31:56.237Z,4.65
2023-04-22T03:36:52.765Z,5.10
2023-04-22T03:41:49.085Z,8.35
2023-04-22T03:46:45.416Z,3.95
2023-04-22T03:51:42.285Z,6.20
2023-04-22T03:56:38.787Z,6.97
2023-04-22T04:01:36.243Z,5.45
2023-04-22T04:06:33.309Z,4.80
2023-04-22T04:11:30.680Z,6.47
2023-04-22T04:16:27.104Z,4.93
2023-04-22T04:21:23.559Z,8.05
2023-04-22T04:26:20.398Z,6.05
2023-04-22T04:31:17.643Z,5.88
2023-04-22T04:36:14.082Z,7.10
2023-04-22T04:41:10.661Z,7.82
2023-04-22T04:46:08.299Z,4.63
2023-04-22T04:51:06.172Z,5.10
2023-04-22T04:56:02.529Z,4.50
2023-04-22T05:00:58.889Z,7.40
2023-04-22T05:05:55.886Z,4.38
2023-04-22T05:10:52.205Z,3.50
2023-04-22T05:15:48.888Z,4.05
2023-04-22T05:20:45.305Z,6.38
2023-04-22T05:25:43.139Z,4.20
2023-04-22T05:30:39.542Z,3.88
2023-04-22T05:35:35.891Z,3.40
2023-04-22T05:40:32.308Z,8.02
2023-04-22T05:45:28.685Z,3.80
2023-04-22T05:50:25.161Z,4.55
2023-04-22T05:55:21.458Z,3.78
2023-04-22T06:00:18.126Z,7.15
2023-04-22T06:05:14.532Z,3.70
2023-04-22T06:10:10.970Z,6.43
2023-04-22T06:15:07.714Z,4.45
2023-04-22T06:20:04.341Z,3.45
2023-04-22T06:25:00.629Z,7.82
2023-04-22T06:29:56.918Z,4.22
2023-04-22T06:34:53.213Z,3.03
2023-04-22T06:39:49.509Z,5.43
2023-04-22T06:44:45.821Z,4.93
2023-04-22T06:49:43.716Z,9.38
2023-04-22T06:54:40.150Z,7.95
2023-04-22T06:59:36.593Z,5.82
2023-04-22T07:04:33.236Z,4.00
2023-04-22T07:09:29.543Z,2.63
2023-04-22T07:14:27.283Z,6.65
2023-04-22T07:19:23.657Z,2.92
2023-04-22T07:24:19.959Z,3.35
2023-04-22T07:29:16.301Z,3.55
2023-04-22T07:34:14.164Z,4.38
2023-04-22T07:39:10.489Z,2.10
2023-04-22T07:44:06.851Z,2.13
2023-04-22T07:49:03.140Z,1.98
2023-04-22T07:53:59.492Z,2.83
2023-04-22T07:58:55.772Z,1.50
2023-04-22T08:03:52.296Z,1.50
2023-04-22T08:08:48.942Z,3.13
2023-04-22T08:13:45.646Z,2.30
2023-04-22T08:18:41.942Z,1.55
2023-04-22T08:23:38.347Z,1.67
2023-04-22T08:28:35.414Z,1.77
2023-04-22T08:33:31.722Z,2.00
2023-04-22T08:38:28.104Z,3.60
2023-04-22T08:43:27.552Z,1.77
2023-04-22T08:48:23.856Z,2.05
2023-04-22T08:53:23.042Z,2.70
2023-04-22T08:58:22.145Z,3.90
2023-04-22T09:03:19.176Z,1.60
2023-04-22T09:08:15.848Z,3.47
2023-04-22T09:13:13.801Z,1.52
2023-04-22T09:18:10.273Z,2.03
2023-04-22T09:23:06.772Z,2.72
2023-04-22T09:28:03.369Z,3.38
2023-04-22T09:33:01.643Z,2.58
2023-04-22T09:38:00.077Z,2.85
2023-04-22T09:42:58.565Z,1.88
2023-04-22T09:47:57.059Z,3.65
2023-04-22T09:52:56.257Z,2.50
2023-04-22T09:57:54.434Z,3.63
2023-04-22T10:02:50.891Z,2.38
2023-04-22T10:07:47.288Z,2.20
2023-04-22T10:12:44.397Z,3.00
2023-04-22T10:17:42.725Z,2.92
2023-04-22T10:22:41.718Z,2.35
2023-04-22T10:27:38.948Z,4.28
2023-04-22T10:32:35.395Z,3.97
2023-04-22T10:37:33.656Z,2.38
2023-04-22T10:42:30.214Z,4.82
2023-04-22T10:47:34.765Z,1.52
2023-04-22T10:52:31.072Z,1.85
2023-04-22T10:57:37.442Z,6.10
2023-04-22T11:02:37.002Z,5.50
2023-04-22T11:07:35.585Z,5.60
2023-04-22T11:12:43.913Z,5.35
2023-04-22T11:17:43.547Z,2.88
2023-04-22T11:22:43.509Z,1.58
2023-04-22T11:27:43.317Z,2.05
2023-04-22T11:32:44.876Z,2.20
2023-04-22T11:37:47.495Z,1.40
2023-04-22T11:42:44.162Z,3.00
2023-04-22T11:47:41.428Z,4.80
2023-04-22T11:57:38.854Z,2.47
2023-04-22T12:02:35.251Z,2.47
2023-04-22T12:07:33.065Z,1.90
2023-04-22T12:12:29.354Z,3.83
2023-04-22T12:17:25.996Z,3.22
2023-04-22T12:22:30.127Z,1.60
2023-04-22T12:27:27.748Z,2.15
2023-04-22T12:32:26.071Z,4.55
2023-04-22T12:37:22.390Z,1.40
2023-04-22T12:42:18.890Z,3.17
2023-04-22T12:47:17.841Z,3.70
2023-04-22T12:52:14.229Z,1.13
2023-04-22T12:57:10.570Z,7.38
2023-04-22T13:02:06.993Z,4.07
2023-04-22T13:07:03.516Z,2.00
2023-04-22T13:11:59.835Z,1.77
2023-04-22T13:16:56.256Z,1.52
2023-04-22T13:21:53.047Z,1.63
2023-04-22T13:26:49.462Z,2.90
2023-04-22T13:31:46.167Z,1.47
2023-04-22T13:36:42.611Z,5.28
2023-04-22T13:41:38.939Z,1.27
2023-04-22T13:46:35.230Z,2.50
2023-04-22T13:51:32.228Z,1.42
2023-04-22T13:56:29.360Z,2.17
2023-04-22T14:01:26.673Z,3.70
2023-04-22T14:06:23.228Z,2.42
2023-04-22T14:11:19.643Z,1.83
2023-04-22T14:16:16.121Z,3.33
2023-04-22T14:21:12.707Z,4.00
2023-04-22T14:26:11.621Z,2.93
2023-04-22T14:31:08.688Z,2.85
2023-04-22T14:36:05.402Z,1.40
2023-04-22T14:41:01.898Z,4.72
2023-04-22T14:45:58.304Z,1.57
2023-04-22T14:50:54.677Z,3.40
2023-04-22T14:55:51.081Z,1.80
2023-04-22T15:00:48.966Z,2.20
2023-04-22T15:05:49.145Z,4.03
2023-04-22T15:10:45.651Z,3.55
2023-04-22T15:15:42.161Z,3.23
2023-04-22T15:20:38.618Z,7.20
2023-04-22T15:25:35.775Z,1.80
2023-04-22T15:30:32.380Z,2.42
2023-04-22T15:35:28.791Z,1.80
2023-04-22T15:40:25.296Z,5.67
2023-04-22T15:45:21.727Z,2.00
2023-04-22T15:50:19.188Z,2.58
2023-04-22T16:00:14.149Z,4.95
2023-04-22T16:05:14.573Z,1.88
2023-04-22T16:10:11.371Z,3.05
2023-04-22T16:15:09.574Z,6.70
2023-04-22T16:20:06.668Z,2.63
2023-04-22T16:25:03.194Z,3.47
2023-04-22T16:29:59.579Z,2.22
2023-04-22T16:34:55.983Z,4.40
2023-04-22T16:39:52.373Z,7.32
2023-04-22T16:44:48.930Z,3.85
2023-04-22T16:49:45.620Z,3.78
2023-04-22T16:54:44.831Z,3.75
2023-04-22T16:59:41.554Z,2.42
2023-04-22T17:04:38.012Z,2.28
2023-04-22T17:09:34.403Z,4.65
2023-04-22T17:14:31.099Z,5.53
2023-04-22T17:19:27.827Z,4.85
2023-04-22T17:24:24.835Z,3.40
2023-04-22T17:29:21.801Z,3.35
2023-04-22T17:34:18.343Z,2.63
2023-04-22T17:39:14.907Z,5.00
2023-04-22T17:44:11.307Z,3.10
2023-04-22T17:49:07.664Z,5.20
2023-04-22T17:54:05.213Z,7.13
2023-04-22T17:59:01.685Z,4.63
2023-04-22T18:03:58.923Z,5.70
2023-04-22T18:08:55.450Z,2.33
2023-04-22T18:13:51.818Z,5.10
2023-04-22T18:18:48.244Z,5.85
2023-04-22T18:23:44.559Z,6.82
2023-04-22T18:28:41.097Z,2.53
2023-04-22T18:33:37.756Z,3.92
2023-04-22T18:38:34.124Z,3.80
2023-04-22T18:43:30.620Z,3.45
2023-04-22T18:48:26.953Z,3.72
2023-04-22T18:53:24.751Z,4.70
2023-04-22T18:58:23.083Z,7.55
2023-04-22T19:03:19.731Z,7.32
2023-04-22T19:08:16.326Z,7.93
2023-04-22T19:13:18.909Z,9.23
2023-04-22T19:18:24.820Z,4.13
2023-04-22T19:23:21.765Z,4.10
2023-04-22T19:28:18.137Z,3.72
2023-04-22T19:33:14.941Z,4.47
2023-04-22T19:38:12.117Z,2.85
2023-04-22T19:43:08.483Z,4.07
2023-04-22T19:48:05.694Z,4.40
2023-04-22T19:53:05.207Z,4.88
2023-04-22T19:58:02.646Z,3.80
2023-04-22T20:02:59.591Z,5.03
2023-04-22T20:07:58.465Z,7.93
2023-04-22T20:12:55.145Z,8.68
2023-04-22T20:17:51.924Z,6.13
2023-04-22T20:22:50.193Z,6.57
2023-04-22T20:32:43.519Z,5.82
2023-04-22T20:37:40.104Z,6.18
2023-04-22T20:42:37.013Z,6.85
2023-04-22T20:47:33.498Z,6.28
2023-04-22T20:52:29.877Z,6.18
2023-04-22T20:57:26.198Z,11.60
2023-04-22T21:02:23.298Z,10.25
2023-04-22T21:07:20.916Z,9.25
2023-04-22T21:12:19.257Z,11.47
2023-04-22T21:17:21.327Z,6.45
2023-04-22T21:22:21.108Z,6.20
2023-04-22T21:27:21.919Z,5.47
2023-04-22T21:32:20.442Z,6.15
2023-04-22T21:37:16.926Z,5.93
2023-04-22T21:42:13.264Z,7.43
2023-04-22T21:47:09.614Z,6.55
2023-04-22T21:52:06.020Z,6.97
2023-04-22T21:57:02.511Z,7.07
2023-04-22T22:01:58.890Z,5.63
2023-04-22T22:06:55.616Z,6.93
2023-04-22T22:11:51.981Z,6.93
2023-04-22T22:16:49.847Z,5.28
2023-04-22T22:21:46.391Z,5.68
2023-04-22T22:26:43.290Z,5.05
2023-04-22T22:31:39.773Z,4.40
2023-04-22T22:36:36.941Z,4.80
2023-04-22T22:41:33.273Z,8.05
2023-04-22T22:46:30.566Z,8.98
2023-04-22T22:51:29.846Z,9.80
2023-04-22T22:56:26.447Z,12.60
2023-04-22T23:01:23.434Z,14.10
2023-04-22T23:06:19.873Z,15.63
2023-04-22T23:11:16.304Z,18.50
2023-04-22T23:16:12.705Z,15.93
2023-04-22T23:21:10.097Z,19.73
2023-04-22T23:26:06.888Z,20.80
2023-04-22T23:31:06.566Z,23.58
2023-04-22T23:36:06.153Z,26.58
2023-04-22T23:41:02.533Z,26.20
2023-04-22T23:45:59.140Z,27.85
2023-04-22T23:50:55.544Z,29.00
2023-04-22T23:55:52.303Z,34.10
